• Join FlightAware (Why Join?)
  • Login
  • US Flag 
05:16PM EDT


 

Airport Tracker/Info


-or-


 

Live Flight TrackerFlight Track Log ✈ EJA996 ✈ 13-May-2013 ✈ KLWB - KRDU

Flight Track Log - Related Links

Times and Time Zones

All times are in EDT time to prevent confusion due to time zone crossing. See the EJA996 flight status page for this flight to view local times or setup timezone preferences in your user account.

Time Position Orientation Groundspeed Altitude Reporting Facility
EDT Latitude Longitude Course Direction KTS MPH feet Rate Location/Type
01:05PM 37.8097 -80.4047 128° Southeast 440 506 5,900  Level Washington Center
01:06PM 37.7447 -80.3586 151° Southeast 349 402 9,200 3,420 Climbing Washington Center
01:07PM 37.6697 -80.3067 151° Southeast 320 368 12,800 3,180 Climbing Washington Center
01:08PM 37.2900 -79.9973 128° Southeast  Level FlightAware Approximate
01:08PM 37.5744 -80.2378 150° Southeast 328 377 15,600  Level Washington Center
01:09PM 37.4728 -80.1636 150° Southeast 379 436 17,000 660 Climbing Washington Center
01:10PM 37.3589 -80.0861 152° Southeast 428 493 17,000  Level Washington Center
01:11PM 37.2817 -79.9772 132° Southeast 459 528 17,000  Level Washington Center
01:12PM 37.1986 -79.8497 129° Southeast 459 528 17,000  Level Washington Center
01:13PM 37.1197 -79.7203 127° Southeast 464 534 17,000  Level Washington Center
01:14PM 37.0328 -79.5806 128° Southeast 464 534 17,000  Level Washington Center
01:15PM 36.9514 -79.4514 128° Southeast 464 534 17,000  Level Washington Center
01:16PM 36.8739 -79.3256 128° Southeast 464 534 17,000  Level Washington Center
01:17PM 36.8003 -79.2131 129° Southeast 464 534 17,000  Level Washington Center
01:18PM 36.7286 -79.0956 127° Southeast 452 520 17,000 -300 Level Washington Center
01:19PM 36.6519 -79.0094 138° Southeast 412 474 16,400 -1,020 Descending Washington Center
01:19PM 36.5961 -78.9939 167° South 348 400 15,600 -1,980 Descending Washington Center
01:20PM 36.5547 -78.9817 167° South 359 413 14,500 -2,520 Descending Washington Center
01:20PM 36.5069 -78.9719 171° South 353 406 13,300 -2,220 Descending Washington Center
01:21PM 36.4594 -78.9519 161° South 359 413 12,300 -1,620 Descending Washington Center
01:21PM 36.4117 -78.9419 170° South 352 405 11,700 -1,500 Descending Washington Center
01:22PM 36.3622 -78.9244 164° South 359 413 10,800 -1,620 Descending Washington Center
01:22PM 36.3186 -78.9147 170° South 343 395 10,100 -840 Descending Washington Center
01:23PM 36.2606 -78.8969 166° South 349 402 10,000 -120 Descending Washington Center
01:23PM 36.2214 -78.8850 166° South 336 387 10,000  Level Washington Center
01:24PM 36.1819 -78.8731 166° South 338 389 10,000 -420 Level Washington Center
01:24PM 36.1386 -78.8636 170° South 294 338 9,600 -1,080 Descending Washington Center
01:25PM 36.1056 -78.8519 164° South 308 354 9,000 -1,380 Descending Washington Center
01:25PM 36.0639 -78.8450 172° South 254 292 8,200 -1,020 Descending Washington Center
01:26PM 36.0389 -78.8414 173° South 276 318 8,000 -240 Descending Washington Center
01:26PM 35.9992 -78.8450 184° South 227 261 8,000  Level Washington Center
01:27PM 35.9719 -78.8464 182° South 248 285 8,000 -120 Level Washington Center
01:27PM 35.9442 -78.8733 218° Southwest 232 267 7,900 -720 Descending Washington Center
01:28PM 35.9186 -78.8928 212° Southwest 227 261 7,300 -1,920 Descending Washington Center
01:28PM 35.8906 -78.9278 225° Southwest 224 258 6,000 -2,100 Descending Washington Center
01:29PM 35.8753 -78.9475 226° Southwest 222 255 5,300 -1,800 Descending Washington Center
01:29PM 35.8453 -78.9794 221° Southwest 223 257 4,200 -900 Descending Washington Center
01:30PM 35.7931 -78.9825 183° South 234 269 4,000 -420 Descending Washington Center
01:31PM 35.7864 -78.9156 97° East 208 239 3,400 -1,080 Descending Washington Center
01:32PM 35.8278 -78.8608 47° Northeast 173 199 1,800 -1,200 Descending Washington Center
01:33PM 35.8536 -78.8286 45° Northeast 145 167 900 -900 Descending Washington Center
01:35PM 35.8667 -78.7833 49° Northeast  Level FlightAware Approximate
01:42PM 35.8776 -78.7875 49° Northeast  Level Estimated
01:43PM 35.8776 -78.7875 49° Northeast  Level Estimated
01:44PM 35.8776 -78.7875 49° Northeast  Level Estimated
01:45PM 35.8776 -78.7875 49° Northeast  Level Estimated